createdAt,value
2019-02-22T00:00:00.803Z,99.27
2019-02-22T00:01:00.845Z,99.38
2019-02-22T00:02:00.811Z,99.17
2019-02-22T00:03:00.765Z,98.96
2019-02-22T00:04:00.789Z,99.21
2019-02-22T00:05:00.742Z,98.96
2019-02-22T00:06:00.729Z,99.17
2019-02-22T00:07:00.725Z,98.76
2019-02-22T00:08:00.707Z,98.96
2019-02-22T00:09:00.751Z,99.07
2019-02-22T00:10:00.687Z,98.80
2019-02-22T00:11:00.681Z,98.45
2019-02-22T00:12:00.674Z,98.39
2019-02-22T00:13:00.657Z,98.66
2019-02-22T00:14:00.647Z,98.66
2019-02-22T00:15:00.666Z,99.27
2019-02-22T00:16:00.654Z,98.86
2019-02-22T00:17:00.613Z,98.86
2019-02-22T00:18:00.608Z,99.07
2019-02-22T00:19:00.609Z,98.96
2019-02-22T00:20:00.617Z,98.86
2019-02-22T00:21:00.567Z,99.17
2019-02-22T00:22:00.560Z,98.50
2019-02-22T00:23:00.545Z,98.66
2019-02-22T00:24:00.544Z,98.50
2019-02-22T00:25:00.573Z,97.78
2019-02-22T00:26:00.517Z,97.42
2019-02-22T00:27:00.501Z,97.73
2019-02-22T00:28:00.491Z,97.88
2019-02-22T00:29:00.479Z,97.94
2019-02-22T00:30:00.477Z,97.83
2019-02-22T00:31:00.487Z,97.88
2019-02-22T00:32:00.450Z,97.32
2019-02-22T00:33:00.437Z,97.37
2019-02-22T00:34:00.430Z,97.42
2019-02-22T00:35:00.440Z,97.37
2019-02-22T00:36:00.444Z,97.27
2019-02-22T00:37:00.476Z,97.27
2019-02-22T00:38:00.388Z,97.37
2019-02-22T00:39:00.370Z,97.12
2019-02-22T00:40:00.385Z,96.85
2019-02-22T00:41:00.348Z,96.85
2019-02-22T00:42:00.345Z,96.60
2019-02-22T00:43:00.385Z,97.27
2019-02-22T00:44:00.316Z,97.47
2019-02-22T00:45:00.449Z,97.47
2019-02-22T00:46:00.308Z,97.32
2019-02-22T00:47:00.289Z,97.12
2019-02-22T00:48:00.355Z,97.57
2019-02-22T00:49:00.311Z,97.37
2019-02-22T00:50:00.344Z,97.88
2019-02-22T00:51:00.241Z,97.57
2019-02-22T00:52:00.238Z,97.57
2019-02-22T00:53:00.275Z,97.67
2019-02-22T00:54:00.214Z,97.88
2019-02-22T00:55:00.472Z,97.99
2019-02-22T00:56:00.193Z,97.99
2019-02-22T00:57:00.180Z,97.99
2019-02-22T00:58:00.170Z,98.08
2019-02-22T00:59:00.198Z,98.54
2019-02-22T01:00:00.360Z,99.05
2019-02-22T01:01:00.141Z,98.80
2019-02-22T01:02:00.155Z,99.21
2019-02-22T01:03:00.113Z,99.11
2019-02-22T01:04:00.106Z,99.01
2019-02-22T01:05:00.305Z,98.75
2019-02-22T01:06:00.085Z,99.11
2019-02-22T01:07:00.074Z,98.96
2019-02-22T01:08:00.062Z,98.85
2019-02-22T01:09:00.053Z,98.96
2019-02-22T01:10:00.050Z,98.80
2019-02-22T01:11:00.072Z,99.11
2019-02-22T01:12:00.021Z,98.96
2019-02-22T01:13:00.005Z,99.26
2019-02-22T01:13:59.998Z,99.26
2019-02-22T01:14:59.990Z,98.96
2019-02-22T01:16:00.051Z,99.16
2019-02-22T01:16:59.965Z,99.16
2019-02-22T01:17:59.950Z,99.16
2019-02-22T01:19:00.002Z,99.57
2019-02-22T01:19:59.927Z,98.65
2019-02-22T01:20:59.922Z,99.37
2019-02-22T01:21:59.944Z,99.05
2019-02-22T01:22:59.899Z,98.75
2019-02-22T01:23:59.900Z,98.65
2019-02-22T01:24:59.877Z,98.44
2019-02-22T01:25:59.931Z,98.75
2019-02-22T01:26:59.863Z,98.65
2019-02-22T01:27:59.844Z,97.92
2019-02-22T01:28:59.834Z,98.24
2019-02-22T01:29:59.818Z,98.03
2019-02-22T01:31:00.558Z,98.54
2019-02-22T01:31:59.810Z,98.54
2019-02-22T01:33:00.556Z,98.75
2019-02-22T01:33:59.779Z,98.54
2019-02-22T01:34:59.807Z,98.69
2019-02-22T01:35:59.772Z,98.54
2019-02-22T01:36:59.744Z,98.96
2019-02-22T01:37:59.743Z,98.75
2019-02-22T01:38:59.721Z,98.44
2019-02-22T01:39:59.770Z,99.05
2019-02-22T01:40:59.710Z,99.57
2019-02-22T01:41:59.698Z,99.47
2019-02-22T01:42:59.723Z,99.16
2019-02-22T01:43:59.672Z,99.37
2019-02-22T01:44:59.658Z,99.26
2019-02-22T01:45:59.652Z,99.21
2019-02-22T01:46:59.638Z,99.51
2019-02-22T01:47:59.628Z,99.51
2019-02-22T01:48:59.633Z,99.51
2019-02-22T01:49:59.606Z,99.41
2019-02-22T01:50:59.598Z,99.62
2019-02-22T01:51:59.594Z,99.62
2019-02-22T01:52:59.587Z,98.90
2019-02-22T01:54:00.101Z,99.31
2019-02-22T01:54:59.554Z,99.21
2019-02-22T01:55:59.542Z,99.10
2019-02-22T01:56:59.531Z,98.69
2019-02-22T01:57:59.613Z,98.90
2019-02-22T01:58:59.536Z,98.79
2019-02-22T01:59:59.521Z,98.38
2019-02-22T02:00:59.481Z,98.18
2019-02-22T02:01:59.476Z,98.54
2019-02-22T02:02:59.465Z,98.49
2019-02-22T02:03:59.466Z,98.59
2019-02-22T02:04:59.497Z,98.90
2019-02-22T02:05:59.437Z,98.33
2019-02-22T02:06:59.422Z,98.18
2019-02-22T02:07:59.407Z,98.07
2019-02-22T02:08:59.403Z,98.38
2019-02-22T02:09:59.386Z,98.38
2019-02-22T02:10:59.383Z,98.07
2019-02-22T02:12:01.826Z,97.66
2019-02-22T02:12:59.357Z,97.87
2019-02-22T02:13:59.346Z,97.87
2019-02-22T02:14:59.337Z,97.77
2019-02-22T02:15:59.380Z,97.66
2019-02-22T02:16:59.305Z,97.52
2019-02-22T02:17:59.295Z,97.87
2019-02-22T02:18:59.289Z,97.97
2019-02-22T02:19:59.282Z,97.66
2019-02-22T02:20:59.269Z,98.13
2019-02-22T02:21:59.285Z,97.87
2019-02-22T02:22:59.246Z,97.97
2019-02-22T02:24:00.278Z,98.38
2019-02-22T02:24:59.223Z,98.18
2019-02-22T02:25:59.212Z,98.28
2019-02-22T02:26:59.226Z,98.28
2019-02-22T02:27:59.198Z,98.07
2019-02-22T02:28:59.178Z,98.69
2019-02-22T02:29:59.169Z,98.49
2019-02-22T02:30:59.161Z,98.69
2019-02-22T02:31:59.186Z,98.79
2019-02-22T02:32:59.136Z,98.59
2019-02-22T02:33:59.127Z,98.69
2019-02-22T02:34:59.118Z,98.59
2019-02-22T02:35:59.106Z,98.79
2019-02-22T02:36:59.170Z,98.79
2019-02-22T02:37:59.112Z,98.79
2019-02-22T02:38:59.076Z,99.00
2019-02-22T02:39:59.141Z,99.00
2019-02-22T02:41:10.035Z,98.59
2019-02-22T02:42:00.047Z,98.79
2019-02-22T02:42:59.033Z,98.79
2019-02-22T02:43:59.021Z,98.79
2019-02-22T02:44:59.033Z,99.00
2019-02-22T02:45:58.997Z,98.69
2019-02-22T02:46:58.977Z,98.38
2019-02-22T02:47:58.995Z,97.45
2019-02-22T02:48:58.991Z,97.25
2019-02-22T02:49:58.950Z,97.25
2019-02-22T02:50:58.950Z,97.45
2019-02-22T02:51:58.923Z,97.45
2019-02-22T02:52:58.918Z,97.45
2019-02-22T02:53:58.951Z,97.36
2019-02-22T02:54:58.894Z,97.25
2019-02-22T02:55:58.893Z,97.25
2019-02-22T02:56:58.875Z,97.45
2019-02-22T02:57:58.867Z,97.25
2019-02-22T02:58:58.852Z,97.45
2019-02-22T02:59:58.899Z,96.73
2019-02-22T03:00:58.830Z,96.43
2019-02-22T03:01:58.818Z,96.94
2019-02-22T03:02:58.803Z,96.53
2019-02-22T03:03:58.792Z,96.84
2019-02-22T03:04:58.863Z,96.58
2019-02-22T03:05:58.798Z,96.73
2019-02-22T03:06:58.767Z,96.84
2019-02-22T03:07:58.771Z,96.94
2019-02-22T03:08:58.737Z,97.15
2019-02-22T03:09:58.725Z,97.25
2019-02-22T03:10:58.724Z,97.50
2019-02-22T03:11:58.706Z,97.45
2019-02-22T03:12:58.692Z,97.56
2019-02-22T03:13:58.682Z,97.66
2019-02-22T03:14:58.687Z,97.36
2019-02-22T03:15:58.687Z,97.36
2019-02-22T03:16:58.647Z,97.15
2019-02-22T03:17:58.636Z,96.94
2019-02-22T03:18:58.631Z,97.36
2019-02-22T03:19:58.624Z,97.45
2019-02-22T03:20:58.665Z,97.15
2019-02-22T03:21:58.596Z,97.45
2019-02-22T03:22:58.586Z,97.25
2019-02-22T03:23:58.584Z,96.94
2019-02-22T03:24:58.566Z,96.78
2019-02-22T03:25:58.548Z,96.89
2019-02-22T03:26:58.618Z,95.96
2019-02-22T03:27:58.527Z,96.53
2019-02-22T03:28:58.524Z,96.37
2019-02-22T03:29:58.504Z,96.06
2019-02-22T03:30:58.496Z,96.17
2019-02-22T03:31:58.488Z,96.17
2019-02-22T03:32:58.497Z,96.17
2019-02-22T03:33:58.461Z,96.06
2019-02-22T03:34:58.450Z,95.55
2019-02-22T03:35:58.443Z,95.34
2019-02-22T03:36:58.428Z,95.34
2019-02-22T03:37:58.419Z,95.14
2019-02-22T03:38:58.415Z,95.14
2019-02-22T03:39:58.394Z,95.14
2019-02-22T03:40:58.387Z,95.03
2019-02-22T03:41:58.375Z,94.77
2019-02-22T03:42:58.485Z,94.77
2019-02-22T03:43:58.355Z,95.18
2019-02-22T03:44:58.344Z,94.36
2019-02-22T03:45:58.329Z,94.15
2019-02-22T03:46:58.321Z,94.67
2019-02-22T03:47:58.382Z,95.08
2019-02-22T03:48:58.305Z,94.77
2019-02-22T03:49:58.287Z,94.98
2019-02-22T03:50:58.281Z,94.87
2019-02-22T03:51:58.266Z,94.77
2019-02-22T03:52:58.259Z,94.77
2019-02-22T03:53:58.249Z,94.77
2019-02-22T03:54:58.236Z,94.71
2019-02-22T03:55:58.223Z,94.81
2019-02-22T03:56:58.221Z,94.60
2019-02-22T03:57:58.200Z,94.51
2019-02-22T03:58:58.229Z,95.12
2019-02-22T03:59:58.174Z,95.02
2019-02-22T04:00:58.174Z,94.30
2019-02-22T04:01:58.155Z,94.92
2019-02-22T04:02:58.140Z,94.40
2019-02-22T04:03:58.161Z,95.12
2019-02-22T04:04:58.126Z,94.45
2019-02-22T04:05:58.113Z,94.81
2019-02-22T04:06:58.143Z,93.73
2019-02-22T04:07:58.086Z,92.69
2019-02-22T04:08:58.079Z,91.77
2019-02-22T04:09:58.123Z,91.87
2019-02-22T04:10:58.053Z,92.08
2019-02-22T04:11:58.076Z,91.77
2019-02-22T04:12:58.035Z,91.66
2019-02-22T04:13:58.028Z,91.56
2019-02-22T04:14:58.013Z,91.56
2019-02-22T04:15:58.003Z,91.66
2019-02-22T04:16:57.994Z,91.56
2019-02-22T04:17:57.992Z,91.66
2019-02-22T04:18:57.973Z,91.36
2019-02-22T04:19:58.012Z,90.84
2019-02-22T04:20:57.946Z,90.94
2019-02-22T04:21:58.008Z,91.25
2019-02-22T04:22:57.921Z,91.56
2019-02-22T04:23:57.922Z,91.40
2019-02-22T04:24:57.906Z,91.19
2019-02-22T04:25:57.917Z,90.99
2019-02-22T04:26:57.878Z,90.99
2019-02-22T04:27:57.873Z,91.19
2019-02-22T04:28:57.861Z,91.50
2019-02-22T04:29:57.924Z,90.99
2019-02-22T04:30:57.864Z,91.50
2019-02-22T04:31:57.831Z,91.60
2019-02-22T04:32:57.823Z,91.60
2019-02-22T04:33:57.814Z,91.09
2019-02-22T04:34:57.849Z,90.51
2019-02-22T04:35:57.791Z,90.41
2019-02-22T04:36:57.773Z,91.34
2019-02-22T04:37:57.766Z,90.31
2019-02-22T04:38:57.748Z,90.72
2019-02-22T04:39:57.741Z,90.51
2019-02-22T04:40:57.741Z,90.51
2019-02-22T04:41:58.423Z,91.34
2019-02-22T04:42:57.709Z,90.51
2019-02-22T04:43:57.710Z,90.45
2019-02-22T04:44:57.688Z,91.17
2019-02-22T04:45:57.754Z,91.89
2019-02-22T04:46:57.681Z,91.89
2019-02-22T04:47:57.657Z,92.10
2019-02-22T04:48:57.645Z,90.66
2019-02-22T04:49:57.638Z,90.97
2019-02-22T04:50:57.619Z,91.07
2019-02-22T04:51:57.656Z,90.59
2019-02-22T04:52:57.605Z,91.63
2019-02-22T04:53:57.649Z,92.04
2019-02-22T04:54:57.574Z,91.52
2019-02-22T04:55:57.570Z,91.63
2019-02-22T04:56:57.565Z,91.01
2019-02-22T04:57:57.540Z,91.11
2019-02-22T04:58:57.536Z,91.36
2019-02-22T04:59:57.520Z,91.16
2019-02-22T05:00:57.509Z,91.20
2019-02-22T05:01:57.541Z,91.92
2019-02-22T05:02:57.490Z,92.23
2019-02-22T05:03:57.479Z,91.40
2019-02-22T05:04:57.469Z,92.23
2019-02-22T05:05:57.462Z,92.13
2019-02-22T05:06:57.472Z,91.96
2019-02-22T05:07:57.431Z,92.33
2019-02-22T05:08:57.421Z,91.96
2019-02-22T05:09:57.414Z,91.03
2019-02-22T05:10:57.482Z,91.17
2019-02-22T05:11:57.396Z,90.87
2019-02-22T05:12:57.375Z,90.50
2019-02-22T05:13:57.367Z,90.39
2019-02-22T05:14:57.353Z,90.70
2019-02-22T05:15:57.347Z,90.39
2019-02-22T05:16:57.372Z,90.74
2019-02-22T05:17:57.331Z,91.26
2019-02-22T05:18:57.315Z,90.95
2019-02-22T05:19:57.318Z,90.64
2019-02-22T05:20:57.287Z,91.26
2019-02-22T05:21:57.306Z,91.67
2019-02-22T05:23:03.941Z,91.05
2019-02-22T05:23:58.260Z,91.41
2019-02-22T05:24:57.273Z,91.30
2019-02-22T05:25:57.246Z,91.41
2019-02-22T05:26:57.221Z,91.41
2019-02-22T05:27:57.219Z,91.09
2019-02-22T05:28:57.200Z,91.76
2019-02-22T05:29:57.202Z,92.49
2019-02-22T05:30:57.178Z,92.18
2019-02-22T05:31:57.210Z,92.49
2019-02-22T05:32:57.159Z,93.21
2019-02-22T05:33:57.152Z,93.00
2019-02-22T05:34:57.144Z,93.41
2019-02-22T05:35:57.141Z,92.90
2019-02-22T05:36:57.126Z,93.00
2019-02-22T05:37:57.134Z,93.21
2019-02-22T05:38:57.097Z,93.52
2019-02-22T05:39:57.083Z,93.31
2019-02-22T05:40:57.078Z,93.41
2019-02-22T05:41:57.097Z,93.00
2019-02-22T05:42:57.058Z,93.00
2019-02-22T05:43:57.084Z,93.21
2019-02-22T05:44:57.032Z,93.21
2019-02-22T05:45:57.025Z,93.25
2019-02-22T05:47:00.381Z,93.35
2019-02-22T05:47:57.000Z,93.46
2019-02-22T05:48:56.991Z,94.14
2019-02-22T05:49:57.017Z,93.35
2019-02-22T05:50:56.967Z,93.77
2019-02-22T05:51:56.958Z,93.98
2019-02-22T05:52:56.991Z,94.49
2019-02-22T05:53:56.940Z,94.49
2019-02-22T05:54:56.923Z,94.29
2019-02-22T05:55:56.943Z,94.18
2019-02-22T05:56:56.899Z,94.49
2019-02-22T05:57:56.886Z,94.56
2019-02-22T05:58:56.937Z,94.49
2019-02-22T05:59:56.869Z,94.60
2019-02-22T06:00:56.857Z,94.49
2019-02-22T06:01:56.861Z,94.39
2019-02-22T06:02:56.839Z,94.60
2019-02-22T06:03:56.827Z,94.39
2019-02-22T06:04:56.855Z,94.81
2019-02-22T06:05:56.800Z,94.91
2019-02-22T06:06:56.796Z,93.77
2019-02-22T06:07:56.780Z,93.66
2019-02-22T06:08:56.775Z,93.15
2019-02-22T06:09:56.758Z,93.04
2019-02-22T06:10:56.786Z,92.84
2019-02-22T06:11:56.744Z,92.94
2019-02-22T06:12:56.729Z,92.74
2019-02-22T06:13:56.718Z,93.25
2019-02-22T06:14:56.702Z,93.15
2019-02-22T06:15:56.705Z,92.63
2019-02-22T06:16:56.682Z,91.18
2019-02-22T06:17:56.673Z,91.70
2019-02-22T06:18:56.665Z,91.60
2019-02-22T06:19:56.694Z,90.87
2019-02-22T06:20:56.640Z,90.97
2019-02-22T06:21:56.637Z,91.08
2019-02-22T06:22:56.669Z,90.35
2019-02-22T06:23:56.611Z,90.45
2019-02-22T06:24:56.599Z,90.66
2019-02-22T06:25:56.589Z,90.04
2019-02-22T06:26:56.575Z,90.25
2019-02-22T06:27:56.567Z,89.62
2019-02-22T06:28:56.610Z,89.94
2019-02-22T06:29:56.557Z,89.87
2019-02-22T06:30:56.548Z,89.98
2019-02-22T06:31:56.526Z,90.35
2019-02-22T06:32:56.508Z,90.45
2019-02-22T06:33:56.528Z,90.87
2019-02-22T06:34:56.485Z,90.56
2019-02-22T06:35:56.527Z,90.60
2019-02-22T06:37:01.679Z,90.45
2019-02-22T06:37:57.462Z,90.39
2019-02-22T06:38:56.449Z,90.50
2019-02-22T06:39:56.438Z,90.39
2019-02-22T06:40:56.444Z,90.39
2019-02-22T06:41:56.424Z,91.12
2019-02-22T06:42:56.406Z,90.91
2019-02-22T06:43:56.390Z,90.60
2019-02-22T06:44:56.383Z,90.60
2019-02-22T06:45:56.371Z,89.83
2019-02-22T06:46:56.362Z,89.15
2019-02-22T06:47:56.355Z,88.42
2019-02-22T06:48:56.340Z,88.32
2019-02-22T06:49:56.327Z,88.32
2019-02-22T06:50:56.316Z,87.70
2019-02-22T06:51:56.307Z,87.38
2019-02-22T06:52:56.346Z,87.74
2019-02-22T06:53:56.287Z,88.01
2019-02-22T06:54:56.276Z,87.38
2019-02-22T06:55:56.262Z,86.87
2019-02-22T06:56:56.253Z,85.94
2019-02-22T06:57:56.249Z,85.66
2019-02-22T06:58:56.243Z,84.83
2019-02-22T06:59:56.225Z,84.73
2019-02-22T07:00:56.211Z,85.46
2019-02-22T07:01:56.200Z,86.18
2019-02-22T07:02:56.241Z,84.56
2019-02-22T07:03:56.178Z,84.67
2019-02-22T07:04:56.169Z,85.08
2019-02-22T07:05:56.155Z,85.50
2019-02-22T07:06:56.140Z,84.88
2019-02-22T07:07:56.909Z,84.36
2019-02-22T07:08:56.161Z,84.88
2019-02-22T07:09:56.118Z,84.77
2019-02-22T07:10:56.097Z,84.91
2019-02-22T07:11:56.087Z,84.67
2019-02-22T07:12:57.205Z,84.91
2019-02-22T07:13:56.064Z,84.91
2019-02-22T07:14:56.095Z,84.81
2019-02-22T07:15:56.042Z,85.12
2019-02-22T07:16:56.030Z,85.02
2019-02-22T07:17:56.029Z,84.60
2019-02-22T07:18:56.037Z,84.60
2019-02-22T07:19:56.001Z,84.91
2019-02-22T07:20:55.991Z,84.60
2019-02-22T07:21:56.030Z,84.39
2019-02-22T07:22:55.971Z,84.81
2019-02-22T07:23:55.966Z,84.29
2019-02-22T07:24:55.976Z,84.19
2019-02-22T07:25:56.056Z,83.46
2019-02-22T07:26:55.960Z,82.73
2019-02-22T07:27:55.992Z,82.53
2019-02-22T07:28:55.936Z,81.94
2019-02-22T07:29:56.047Z,80.07
2019-02-22T07:30:55.895Z,78.82
2019-02-22T07:32:05.393Z,77.82
2019-02-22T07:32:56.911Z,77.82
2019-02-22T07:33:55.909Z,76.02
2019-02-22T07:34:55.906Z,77.26
2019-02-22T07:35:55.862Z,77.82
2019-02-22T07:36:56.656Z,77.16
2019-02-22T07:37:55.839Z,75.95
2019-02-22T07:38:55.849Z,74.91
2019-02-22T07:39:55.992Z,74.60
2019-02-22T07:40:55.805Z,74.91
2019-02-22T07:41:55.807Z,73.49
2019-02-22T07:42:55.823Z,72.14
2019-02-22T07:43:55.744Z,72.11
2019-02-22T07:44:55.725Z,72.97
2019-02-22T07:45:55.714Z,72.76
2019-02-22T07:46:55.817Z,73.25
2019-02-22T07:47:55.694Z,74.11
2019-02-22T07:48:55.737Z,73.60
2019-02-22T07:49:55.676Z,73.28
2019-02-22T07:50:58.164Z,72.14
2019-02-22T07:51:55.661Z,72.24
2019-02-22T07:52:55.648Z,71.34
2019-02-22T07:53:55.630Z,71.65
2019-02-22T07:54:55.621Z,71.65
2019-02-22T07:55:55.617Z,71.69
2019-02-22T07:56:55.611Z,71.79
2019-02-22T07:57:55.589Z,72.41
2019-02-22T07:58:55.583Z,73.52
2019-02-22T07:59:55.567Z,73.97
2019-02-22T08:00:55.554Z,73.52
2019-02-22T08:01:55.561Z,73.66
2019-02-22T08:02:55.531Z,74.39
2019-02-22T08:03:55.522Z,73.73
2019-02-22T08:04:55.540Z,71.79
2019-02-22T08:05:55.501Z,72.20
2019-02-22T08:06:55.488Z,73.77
2019-02-22T08:07:55.474Z,74.91
2019-02-22T08:08:55.465Z,75.12
2019-02-22T08:09:55.455Z,75.54
2019-02-22T08:10:55.466Z,79.97
2019-02-22T08:11:55.435Z,77.89
2019-02-22T08:12:55.438Z,78.58
2019-02-22T08:13:55.410Z,74.53
2019-02-22T08:14:55.401Z,75.57
2019-02-22T08:15:55.391Z,73.60
2019-02-22T08:16:55.377Z,75.46
2019-02-22T08:17:55.379Z,75.88
2019-02-22T08:19:01.713Z,78.13
2019-02-22T08:19:56.349Z,74.60
2019-02-22T08:20:55.339Z,76.06
2019-02-22T08:21:55.326Z,75.74
2019-02-22T08:22:55.320Z,74.70
2019-02-22T08:23:55.306Z,73.46
2019-02-22T08:24:55.338Z,74.63
2019-02-22T08:25:55.285Z,74.95
2019-02-22T08:26:55.283Z,75.15
2019-02-22T08:27:55.262Z,74.60
2019-02-22T08:28:55.267Z,76.06
2019-02-22T08:29:55.248Z,74.29
2019-02-22T08:30:55.268Z,74.91
2019-02-22T08:31:55.215Z,75.95
2019-02-22T08:32:55.208Z,76.23
2019-02-22T08:33:57.111Z,74.88
2019-02-22T08:34:55.277Z,73.60
2019-02-22T08:35:55.171Z,73.43
2019-02-22T08:36:55.163Z,74.57
2019-02-22T08:37:55.152Z,73.70
2019-02-22T08:38:55.137Z,73.80
2019-02-22T08:39:58.533Z,72.84
2019-02-22T08:40:55.161Z,71.31
2019-02-22T08:41:55.112Z,72.35
2019-02-22T08:42:55.097Z,72.80
2019-02-22T08:43:55.089Z,74.32
2019-02-22T08:44:55.077Z,73.49
2019-02-22T08:45:55.104Z,73.46
2019-02-22T08:46:55.095Z,71.73
2019-02-22T08:47:55.046Z,71.00
2019-02-22T08:48:55.028Z,71.34
2019-02-22T08:49:55.026Z,72.28
2019-02-22T08:50:55.090Z,73.04
2019-02-22T08:51:55.004Z,73.66
2019-02-22T08:52:54.984Z,72.94
2019-02-22T08:53:54.973Z,73.39
2019-02-22T08:54:54.968Z,73.49
2019-02-22T08:55:54.959Z,73.28
2019-02-22T08:56:54.989Z,73.39
2019-02-22T08:57:55.027Z,75.05
2019-02-22T08:58:54.920Z,74.63
2019-02-22T08:59:54.914Z,74.25
2019-02-22T09:00:54.898Z,73.28
2019-02-22T09:01:54.886Z,72.76
2019-02-22T09:02:54.885Z,71.13
2019-02-22T09:03:54.908Z,71.75
2019-02-22T09:04:54.859Z,71.13
2019-02-22T09:05:54.842Z,71.44
2019-02-22T09:06:54.834Z,71.75
2019-02-22T09:07:54.876Z,71.97
2019-02-22T09:08:54.814Z,72.17
2019-02-22T09:09:54.806Z,72.28
2019-02-22T09:11:00.416Z,71.20
2019-02-22T09:11:57.754Z,71.90
2019-02-22T09:12:54.787Z,70.41
2019-02-22T09:13:54.757Z,69.24
2019-02-22T09:14:54.803Z,68.62
2019-02-22T09:15:54.733Z,68.41
2019-02-22T09:16:54.728Z,67.20
2019-02-22T09:17:55.431Z,67.30
2019-02-22T09:18:54.783Z,66.11
2019-02-22T09:19:54.694Z,65.04
2019-02-22T09:20:54.684Z,64.11
2019-02-22T09:21:54.740Z,62.52
2019-02-22T09:22:54.662Z,61.18
2019-02-22T09:23:54.651Z,61.36
2019-02-22T09:24:54.681Z,59.99
2019-02-22T09:25:54.625Z,59.85
2019-02-22T09:26:54.676Z,59.41
2019-02-22T09:27:54.602Z,55.69
2019-02-22T09:28:55.594Z,52.88
2019-02-22T09:29:58.766Z,52.47
2019-02-22T09:30:54.598Z,53.68
2019-02-22T09:31:54.559Z,51.82
2019-02-22T09:32:54.554Z,51.62
2019-02-22T09:33:54.544Z,50.35
2019-02-22T09:34:54.559Z,49.53
2019-02-22T09:35:54.521Z,48.29
2019-02-22T09:36:54.504Z,47.96
2019-02-22T09:37:54.500Z,47.75
2019-02-22T09:38:54.490Z,46.64
2019-02-22T09:39:54.479Z,47.46
2019-02-22T09:40:54.514Z,46.74
2019-02-22T09:41:54.457Z,46.70
2019-02-22T09:42:54.461Z,46.92
2019-02-22T09:43:55.720Z,46.80
2019-02-22T09:44:54.417Z,45.25
2019-02-22T09:45:54.407Z,46.37
2019-02-22T09:46:54.452Z,44.39
2019-02-22T09:47:54.385Z,44.39
2019-02-22T09:48:54.377Z,44.08
2019-02-22T09:49:54.361Z,43.46
2019-02-22T09:50:54.350Z,44.20
2019-02-22T09:51:54.339Z,43.79
2019-02-22T09:52:54.358Z,44.43
2019-02-22T09:53:54.321Z,43.79
2019-02-22T09:54:54.309Z,42.94
2019-02-22T09:55:54.338Z,42.35
2019-02-22T09:56:54.322Z,42.04
2019-02-22T09:57:54.278Z,42.22
2019-02-22T09:58:54.266Z,42.33
2019-02-22T09:59:54.258Z,42.62
2019-02-22T10:00:54.246Z,41.36
2019-02-22T10:01:54.231Z,40.52
2019-02-22T10:02:54.230Z,40.01
2019-02-22T10:03:54.211Z,39.48
2019-02-22T10:04:55.555Z,39.70
2019-02-22T10:05:54.186Z,39.29
2019-02-22T10:06:54.176Z,39.99
2019-02-22T10:07:54.212Z,38.15
2019-02-22T10:08:54.158Z,39.50
2019-02-22T10:09:54.143Z,39.08
2019-02-22T10:10:54.138Z,38.57
2019-02-22T10:11:54.125Z,38.85
2019-02-22T10:12:54.194Z,37.21
2019-02-22T10:13:54.146Z,38.04
2019-02-22T10:14:54.097Z,38.04
2019-02-22T10:15:54.085Z,37.34
2019-02-22T10:16:54.066Z,37.76
2019-02-22T10:17:54.060Z,38.59
2019-02-22T10:18:54.074Z,37.66
2019-02-22T10:19:54.038Z,36.73
2019-02-22T10:20:54.045Z,36.20
2019-02-22T10:21:54.013Z,35.89
2019-02-22T10:22:54.001Z,35.38
2019-02-22T10:23:54.033Z,35.05
2019-02-22T10:24:53.995Z,35.16
2019-02-22T10:25:53.975Z,34.11
2019-02-22T10:26:53.963Z,35.55
2019-02-22T10:27:53.952Z,34.92
2019-02-22T10:28:53.982Z,34.81
2019-02-22T10:29:53.927Z,34.71
2019-02-22T10:30:53.953Z,35.02
2019-02-22T10:31:53.913Z,33.47
2019-02-22T10:32:53.892Z,33.36
2019-02-22T10:33:53.962Z,33.87
2019-02-22T10:34:53.876Z,33.06
2019-02-22T10:35:53.860Z,33.26
2019-02-22T10:36:53.868Z,33.36
2019-02-22T10:37:53.838Z,33.15
2019-02-22T10:38:53.833Z,33.14
2019-02-22T10:39:53.871Z,33.04
2019-02-22T10:40:53.810Z,31.90
2019-02-22T10:41:53.801Z,32.19
2019-02-22T10:42:53.788Z,31.25
2019-02-22T10:43:53.777Z,30.84
2019-02-22T10:44:53.844Z,30.52
2019-02-22T10:45:53.751Z,30.52
2019-02-22T10:46:53.745Z,29.80
2019-02-22T10:47:53.733Z,30.00
2019-02-22T10:48:53.726Z,30.18
2019-02-22T10:49:53.709Z,29.47
2019-02-22T10:50:53.706Z,29.36
2019-02-22T10:51:53.685Z,29.06
2019-02-22T10:53:01.674Z,29.98
2019-02-22T10:53:54.665Z,28.74
2019-02-22T10:54:53.654Z,29.05
2019-02-22T10:55:53.689Z,27.91
2019-02-22T10:56:53.639Z,28.74
2019-02-22T10:57:53.625Z,29.03
2019-02-22T10:58:53.608Z,28.71
2019-02-22T10:59:53.601Z,27.66
2019-02-22T11:00:53.627Z,28.48
2019-02-22T11:01:53.603Z,27.97
2019-02-22T11:02:53.567Z,28.25
2019-02-22T11:03:53.556Z,26.22
2019-02-22T11:04:53.540Z,26.32
2019-02-22T11:05:53.533Z,26.35
2019-02-22T11:06:53.577Z,27.18
2019-02-22T11:07:53.507Z,27.08
2019-02-22T11:08:53.496Z,27.27
2019-02-22T11:09:53.485Z,27.36
2019-02-22T11:10:53.479Z,27.25
2019-02-22T11:11:53.466Z,26.84
2019-02-22T11:12:53.482Z,26.32
2019-02-22T11:13:53.447Z,26.31
2019-02-22T11:14:53.437Z,27.22
2019-02-22T11:15:53.423Z,26.30
2019-02-22T11:16:53.411Z,27.53
2019-02-22T11:17:53.428Z,27.53
2019-02-22T11:18:53.394Z,27.01
2019-02-22T11:19:53.376Z,26.91
2019-02-22T11:20:53.365Z,27.03
2019-02-22T11:21:53.354Z,26.12
2019-02-22T11:22:53.387Z,27.06
2019-02-22T11:23:53.366Z,26.55
2019-02-22T11:24:53.321Z,26.35
2019-02-22T11:25:53.318Z,26.14
2019-02-22T11:26:53.306Z,25.73
2019-02-22T11:27:53.330Z,25.51
2019-02-22T11:28:53.322Z,25.42
2019-02-22T11:29:53.271Z,25.71
2019-02-22T11:30:53.254Z,26.32
2019-02-22T11:31:53.254Z,26.10
2019-02-22T11:32:53.234Z,26.09
2019-02-22T11:33:53.319Z,25.36
2019-02-22T11:34:53.211Z,24.22
2019-02-22T11:35:53.213Z,25.43
2019-02-22T11:36:53.190Z,25.11
2019-02-22T11:37:53.183Z,24.21
2019-02-22T11:38:53.211Z,24.41
2019-02-22T11:39:53.162Z,24.43
2019-02-22T11:40:53.183Z,25.27
2019-02-22T11:41:53.133Z,25.68
2019-02-22T11:42:53.128Z,25.19
2019-02-22T11:43:53.146Z,26.21
2019-02-22T11:44:53.107Z,26.72
2019-02-22T11:45:53.094Z,27.56
2019-02-22T11:46:53.108Z,27.25
2019-02-22T11:47:53.115Z,27.46
2019-02-22T11:48:53.101Z,27.25
2019-02-22T11:49:53.054Z,26.43
2019-02-22T11:50:53.041Z,27.45
2019-02-22T11:51:53.029Z,27.44
2019-02-22T11:52:53.016Z,26.20
2019-02-22T11:53:53.087Z,26.29
2019-02-22T11:54:52.999Z,26.70
2019-02-22T11:55:52.981Z,27.20
2019-02-22T11:56:52.980Z,26.49
2019-02-22T11:57:52.961Z,26.38
2019-02-22T11:58:52.957Z,26.38
2019-02-22T11:59:52.981Z,25.87
2019-02-22T12:00:52.938Z,25.65
2019-02-22T12:01:52.922Z,23.61
2019-02-22T12:02:52.913Z,22.60
2019-02-22T12:03:52.903Z,22.91
2019-02-22T12:04:52.950Z,23.85
2019-02-22T12:05:52.876Z,23.86
2019-02-22T12:06:52.878Z,24.58
2019-02-22T12:07:52.855Z,24.68
2019-02-22T12:08:52.847Z,24.67
2019-02-22T12:09:52.836Z,25.38
2019-02-22T12:10:52.864Z,25.59
2019-02-22T12:11:52.810Z,26.32
2019-02-22T12:12:52.799Z,26.73
2019-02-22T12:13:52.789Z,26.15
2019-02-22T12:14:52.858Z,27.37
2019-02-22T12:15:52.778Z,27.17
2019-02-22T12:16:52.753Z,28.01
2019-02-22T12:17:52.751Z,28.02
2019-02-22T12:18:52.733Z,28.94
2019-02-22T12:19:52.722Z,29.26
2019-02-22T12:20:52.729Z,29.16
2019-02-22T12:21:52.747Z,29.16
2019-02-22T12:22:52.695Z,29.28
2019-02-22T12:23:53.036Z,28.67
2019-02-22T12:24:52.668Z,30.00
2019-02-22T12:25:52.697Z,30.63
2019-02-22T12:26:52.706Z,29.82
2019-02-22T12:27:52.638Z,30.43
2019-02-22T12:28:52.625Z,30.55
2019-02-22T12:29:52.612Z,31.06
2019-02-22T12:30:52.601Z,30.74
2019-02-22T12:31:52.589Z,30.83
2019-02-22T12:32:52.620Z,31.97
2019-02-22T12:33:52.569Z,31.85
2019-02-22T12:34:52.561Z,31.13
2019-02-22T12:35:52.617Z,30.73
2019-02-22T12:36:52.534Z,31.46
2019-02-22T12:37:52.566Z,31.35
2019-02-22T12:38:52.528Z,31.24
2019-02-22T12:39:52.505Z,31.46
2019-02-22T12:40:52.497Z,31.15
2019-02-22T12:41:53.725Z,30.63
2019-02-22T12:42:52.512Z,30.84
2019-02-22T12:43:52.506Z,30.14
2019-02-22T12:45:02.446Z,30.56
2019-02-22T12:45:53.437Z,30.98
2019-02-22T12:46:52.431Z,30.04
2019-02-22T12:47:52.423Z,29.61
2019-02-22T12:48:52.445Z,29.39
2019-02-22T12:49:52.392Z,28.96
2019-02-22T12:50:52.391Z,29.56
2019-02-22T12:51:52.372Z,29.12